Wetterdaten: Woche 08.09.08 - 14.09.08 (KW37)
Datum Zeit Temp. A. Feuchte A. Luftdruck Regen Wind Richtung Sonnenschein Solar Windben
12.09.2008 18:00 16,1 C 76 % 1012,4 hPa 0,0 l/m 0,0 km/h (0 Bft) N 0,00 h 0 W/m 4,8 km/h (1 Bft)
12.09.2008 19:00 15,5 C 79 % 1012,7 hPa 1,8 l/m 0,0 km/h (0 Bft) N 0,00 h 7 W/m 27,4 km/h (4 Bft)
12.09.2008 20:00 15,6 C 86 % 1012,8 hPa 0,0 l/m 0,0 km/h (0 Bft) N 0,00 h 0 W/m 1,6 km/h (1 Bft)
12.09.2008 21:00 15,4 C 85 % 1013,3 hPa 0,0 l/m 0,0 km/h (0 Bft) N 0,00 h 0 W/m 0,8 km/h (0 Bft)
12.09.2008 22:00 15,7 C 83 % 1013,3 hPa 0,0 l/m 0,0 km/h (0 Bft) N 0,00 h 0 W/m 0,0 km/h (0 Bft)
12.09.2008 23:00 15,8 C 82 % 1012,9 hPa 0,0 l/m 0,0 km/h (0 Bft) N 0,00 h 0 W/m 0,0 km/h (0 Bft)
13.09.2008 00:00 15,5 C 82 % 1012,8 hPa 0,0 l/m 0,0 km/h (0 Bft) N 0,00 h 0 W/m 0,0 km/h (0 Bft)
13.09.2008 01:00 15,3 C 80 % 1012,6 hPa 0,0 l/m 0,0 km/h (0 Bft) N 0,00 h 0 W/m 0,0 km/h (0 Bft)
13.09.2008 02:00 15,1 C 81 % 1012,3 hPa 0,0 l/m 0,0 km/h (0 Bft) N 0,00 h 0 W/m 0,0 km/h (0 Bft)
13.09.2008 03:00 15,0 C 81 % 1011,1 hPa 0,0 l/m 0,0 km/h (0 Bft) N 0,00 h 0 W/m 0,0 km/h (0 Bft)
13.09.2008 04:00 14,8 C 83 % 1011,3 hPa 0,0 l/m 0,0 km/h (0 Bft) N 0,00 h 0 W/m 0,0 km/h (0 Bft)
13.09.2008 05:00 14,6 C 84 % 1010,9 hPa 0,0 l/m 0,0 km/h (0 Bft) N 0,00 h 0 W/m 0,0 km/h (0 Bft)
13.09.2008 06:00 14,6 C 87 % 1010,5 hPa 0,0 l/m 0,0 km/h (0 Bft) N 0,00 h 0 W/m 0,0 km/h (0 Bft)
13.09.2008 07:00 14,4 C 90 % 1010,7 hPa 0,0 l/m 0,0 km/h (0 Bft) N 0,00 h 0 W/m 0,0 km/h (0 Bft)
13.09.2008 08:00 14,2 C 91 % 1010,8 hPa 0,0 l/m 0,0 km/h (0 Bft) N 0,00 h 21 W/m 0,0 km/h (0 Bft)
13.09.2008 09:00 14,3 C 92 % 1010,8 hPa 0,2 l/m 0,0 km/h (0 Bft) N 0,50 h 51 W/m 0,0 km/h (0 Bft)
13.09.2008 10:00 14,3 C 92 % 1010,6 hPa 0,0 l/m 0,0 km/h (0 Bft) N 0,00 h 49 W/m 0,0 km/h (0 Bft)
13.09.2008 11:00 14,4 C 93 % 1010,1 hPa 0,4 l/m 0,0 km/h (0 Bft) N 1,00 h 67 W/m 0,0 km/h (0 Bft)
13.09.2008 12:00 14,6 C 94 % 1009,0 hPa 0,4 l/m 0,0 km/h (0 Bft) N 1,00 h 118 W/m 0,0 km/h (0 Bft)
13.09.2008 13:00 14,8 C 93 % 1008,7 hPa 0,0 l/m 0,0 km/h (0 Bft) N 1,00 h 72 W/m 0,0 km/h (0 Bft)
13.09.2008 14:00 14,8 C 94 % 1008,7 hPa 0,0 l/m 0,0 km/h (0 Bft) N 0,50 h 51 W/m 0,0 km/h (0 Bft)
13.09.2008 15:00 14,9 C 94 % 1008,6 hPa 0,0 l/m 0,0 km/h (0 Bft) N 0,00 h 30 W/m 0,0 km/h (0 Bft)
13.09.2008 16:00 14,8 C 93 % 1008,3 hPa 0,4 l/m 0,0 km/h (0 Bft) N 0,00 h 42 W/m 0,0 km/h (0 Bft)
13.09.2008 17:00 13,6 C 89 % 1008,1 hPa 0,4 l/m 0,0 km/h (0 Bft) N 0,00 h 37 W/m 0,0 km/h (0 Bft)
13.09.2008 18:00 12,8 C 84 % 1008,7 hPa 0,0 l/m 0,0 km/h (0 Bft) N 0,00 h 14 W/m 0,8 km/h (0 Bft)
13.09.2008 19:00 12,5 C 81 % 1009,3 hPa 0,0 l/m 2,4 km/h (1 Bft) O-NO 0,00 h 0 W/m 25,8 km/h (4 Bft)
13.09.2008 20:00 12,3 C 83 % 1010,0 hPa 0,0 l/m 7,2 km/h (2 Bft) NO 0,00 h 0 W/m 22,5 km/h (4 Bft)
13.09.2008 21:00 12,1 C 85 % 1010,6 hPa 0,0 l/m 7,2 km/h (2 Bft) NO 0,00 h 0 W/m 20,1 km/h (4 Bft)
13.09.2008 22:00 11,8 C 81 % 1011,0 hPa 0,0 l/m 6,4 km/h (2 Bft) NO 0,00 h 0 W/m 18,5 km/h (3 Bft)
13.09.2008 23:00 11,4 C 77 % 1011,2 hPa 0,0 l/m 5,6 km/h (1 Bft) NO 0,00 h 0 W/m 17,7 km/h (3 Bft)
14.09.2008 00:00 10,5 C 80 % 1011,5 hPa 0,4 l/m 5,6 km/h (1 Bft) NO 0,00 h 0 W/m 17,7 km/h (3 Bft)
14.09.2008 01:00 9,4 C 84 % 1011,8 hPa 0,4 l/m 3,2 km/h (1 Bft) NO 0,00 h 0 W/m 11,3 km/h (2 Bft)
14.09.2008 02:00 8,5 C 83 % 1012,1 hPa 0,4 l/m 5,6 km/h (1 Bft) NO 0,00 h 0 W/m 18,5 km/h (3 Bft)
14.09.2008 03:00 8,3 C 82 % 1012,3 hPa 0,0 l/m 6,4 km/h (2 Bft) NO 0,00 h 0 W/m 20,9 km/h (4 Bft)
14.09.2008 04:00 8,1 C 82 % 1012,7 hPa 0,0 l/m 6,4 km/h (2 Bft) NO 0,00 h 0 W/m 19,3 km/h (3 Bft)
14.09.2008 05:00 7,4 C 84 % 1013,3 hPa 0,0 l/m 6,4 km/h (2 Bft) NO 0,00 h 0 W/m 20,1 km/h (4 Bft)
14.09.2008 06:00 7,3 C 82 % 1013,7 hPa 0,2 l/m 6,4 km/h (2 Bft) NO 0,00 h 0 W/m 18,5 km/h (3 Bft)
14.09.2008 07:00 7,9 C 91 % 1014,3 hPa 0,0 l/m 8,0 km/h (2 Bft) NO 0,00 h 9 W/m 23,3 km/h (4 Bft)
14.09.2008 08:00 7,8 C 85 % 1015,1 hPa 0,0 l/m 8,0 km/h (2 Bft) NO 0,50 h 79 W/m 21,7 km/h (4 Bft)
14.09.2008 09:00 8,1 C 82 % 1015,5 hPa 0,0 l/m 8,0 km/h (2 Bft) NO 1,00 h 97 W/m 20,1 km/h (4 Bft)
14.09.2008 10:00 8,5 C 79 % 1016,1 hPa 0,0 l/m 7,2 km/h (2 Bft) NO 1,00 h 127 W/m 19,3 km/h (3 Bft)
14.09.2008 11:00 9,0 C 78 % 1016,6 hPa 0,0 l/m 6,4 km/h (2 Bft) N-NO 1,00 h 155 W/m 18,5 km/h (3 Bft)
14.09.2008 12:00 9,4 C 77 % 1016,8 hPa 0,0 l/m 6,4 km/h (2 Bft) NO 1,00 h 137 W/m 19,3 km/h (3 Bft)
14.09.2008 13:00 9,5 C 77 % 1017,3 hPa 0,0 l/m 6,4 km/h (2 Bft) NO 1,00 h 123 W/m 17,7 km/h (3 Bft)
14.09.2008 14:00 10,4 C 73 % 1017,3 hPa 0,0 l/m 6,4 km/h (2 Bft) O 1,00 h 246 W/m 19,3 km/h (3 Bft)
14.09.2008 15:00 11,4 C 69 % 1017,3 hPa 0,0 l/m 5,6 km/h (1 Bft) O-NO 1,00 h 227 W/m 20,1 km/h (4 Bft)
14.09.2008 16:00 11,4 C 69 % 1017,8 hPa 0,0 l/m 4,8 km/h (1 Bft) O-SO 1,00 h 70 W/m 12,9 km/h (3 Bft)
14.09.2008 17:00 11,1 C 72 % 1018,3 hPa 0,0 l/m 2,4 km/h (1 Bft) SO 0,50 h 49 W/m 8,9 km/h (2 Bft)
14.09.2008 18:00 10,8 C 77 % 1019,0 hPa 0,0 l/m 2,4 km/h (1 Bft) SW 0,00 h 12 W/m 7,2 km/h (2 Bft)
14.09.2008 19:00 9,9 C 82 % 1019,1 hPa 0,2 l/m 1,6 km/h (1 Bft) S-SW 0,00 h 11 W/m 6,4 km/h (2 Bft)
14.09.2008 20:00 8,5 C 87 % 1019,6 hPa 0,0 l/m 0,0 km/h (0 Bft) N 0,00 h 0 W/m 4,0 km/h (1 Bft)
14.09.2008 21:00 8,4 C 87 % 1019,9 hPa 0,0 l/m 0,0 km/h (0 Bft) N 0,00 h 0 W/m 4,0 km/h (1 Bft)
14.09.2008 22:00 8,2 C 88 % 1019,7 hPa 0,0 l/m 0,0 km/h (0 Bft) N 0,00 h 0 W/m 0,0 km/h (0 Bft)
14.09.2008 23:00 8,3 C 89 % 1019,5 hPa 0,0 l/m 0,0 km/h (0 Bft) N 0,00 h 0 W/m 0,0 km/h (0 Bft)
Min-Datum _ 14.09.08 14.09.08 13.09.08 - 12.09.08 - - - 12.09.08
_ Min-Zeit 06:30 15:00 17:00 - 18:30 - - - 20:30
Minimum _ 7,2 C 69 % 1008,0 hPa - 0,0 km/h (0 Bft) - - - 0,0 km/h (0 Bft)
Max-Datum _ 12.09.08 13.09.08 14.09.08 12.09.08 13.09.08 - 13.09.08 14.09.08 12.09.08
_ Max-Zeit 18:30 12:30 21:00 19:30 20:00 - 09:30 15:00 19:30
Maximum _ 16,2 C 94 % 1020,1 hPa 1,8 l/m 8,0 km/h
NO (2 Bft)
- 0,50 h 258 W/m 40,2 km/h
SO (6 Bft)
Durchschnitt _ 12,0 C 83 % 1013,2 hPa #5,2 l/m 2,6 km/h (1 Bft) NO #13:00 h 76 W/m 9,1 km/h (2 Bft)